Terminal Aerodrome Forecast
Issued by NWS Springfield, MO

Home | Current Version | Previous Version | Text Only | Print | Product List | Glossary On
Versions: 1 2 3 4 5 6 7 8 9 10 11 12 13 14 15
000
FTUS43 KSGF 281700
TAFSGF
TAF
KSGF 281730Z 2818/2918 34010KT P6SM SCT040
     FM290100 VRB04KT P6SM SKC
     FM291500 23005KT P6SM SCT100=

USA.gov is the U.S. government's official web portal to all federal, state and local government web resources and services.